Time;durP1;ratioP1;P1;durP2;ratioP2;P2;SDS_P1;SDS_P2;PMS_P1;PMS_P2;Temp;Humidity;BMP_temperature;BMP_pressure;BME280_temperature;BME280_humidity;BME280_pressure;Samples;Min_cycle;Max_cycle;Signal;HPM_P1;HPM_P2
2021/12/11 00:00:48;;;;;;;22.73;10.63;;;-3.00;99.90;-3.60;95351.00;;;;5033968;28;20936;-81
2021/12/11 00:03:42;;;;;;;21.33;12.30;;;-3.00;99.90;-3.50;95358.00;;;;5062187;28;20803;-81
2021/12/11 00:06:36;;;;;;;16.97;11.43;;;-2.90;99.90;-3.80;95354.00;;;;5036226;28;20432;-79
2021/12/11 00:09:30;;;;;;;23.23;11.80;;;-3.00;99.90;-4.00;95344.00;;;;5043829;28;20454;-78
2021/12/11 00:12:23;;;;;;;16.23;9.67;;;-3.00;99.90;-3.90;95355.00;;;;5060654;28;20471;-79
2021/12/11 00:15:17;;;;;;;19.53;11.10;;;-3.10;99.90;-3.90;95368.00;;;;5061875;28;20899;-78
2021/12/11 00:18:12;;;;;;;18.70;9.37;;;-3.10;99.90;-4.20;95378.00;;;;5050136;28;20432;-80
2021/12/11 00:21:07;;;;;;;17.70;9.70;;;-3.20;99.90;-4.10;95380.00;;;;5029240;28;20452;-81
2021/12/11 00:24:02;;;;;;;14.60;9.73;;;-3.30;99.90;-4.00;95383.00;;;;5028646;28;20420;-80
2021/12/11 00:26:57;;;;;;;17.10;9.53;;;-3.30;99.90;-4.00;95381.00;;;;5032076;28;20448;-80
2021/12/11 00:29:46;;;;;;;19.27;9.80;;;-3.30;99.90;-4.00;95385.00;;;;5041175;28;20431;-80
2021/12/11 00:32:37;;;;;;;16.20;9.47;;;-3.20;99.90;-3.80;95394.00;;;;5032598;28;20474;-80
2021/12/11 00:35:28;;;;;;;11.80;7.13;;;-3.20;99.90;-3.70;95401.00;;;;5031789;28;20816;-81
2021/12/11 00:38:22;;;;;;;11.90;7.97;;;-3.10;99.90;-3.50;95400.00;;;;5030489;28;20432;-81
2021/12/11 00:41:14;;;;;;;16.87;8.90;;;-3.00;99.90;-3.50;95406.00;;;;5042709;28;20443;-80
2021/12/11 00:44:03;;;;;;;16.40;8.30;;;-2.90;99.90;-3.50;95407.00;;;;5045695;28;20994;-80
2021/12/11 00:46:52;;;;;;;11.73;8.27;;;-2.90;99.90;-3.50;95409.00;;;;5035316;28;20435;-82
2021/12/11 00:49:50;;;;;;;11.27;8.20;;;-2.80;99.90;-3.50;95410.00;;;;5039433;28;20926;-82
2021/12/11 00:52:44;;;;;;;14.37;8.67;;;-2.80;99.90;-3.60;95427.00;;;;5039374;28;20472;-82
2021/12/11 00:55:37;;;;;;;16.73;10.10;;;-2.80;99.90;-3.60;95428.00;;;;5046892;28;20944;-82
2021/12/11 00:58:29;;;;;;;13.40;9.50;;;-2.90;99.90;-3.90;95433.00;;;;5029400;28;20423;-80
2021/12/11 01:01:22;;;;;;;13.07;9.20;;;-3.00;99.90;-3.90;95429.00;;;;5040249;28;20458;-80
2021/12/11 01:04:16;;;;;;;11.43;8.17;;;-3.00;99.90;-3.90;95448.00;;;;5046992;28;21192;-81
2021/12/11 01:07:16;;;;;;;14.73;8.57;;;-3.10;99.90;-3.80;95452.00;;;;5029255;28;20436;-82
2021/12/11 01:10:12;;;;;;;12.70;8.43;;;-3.10;99.90;-3.70;95462.00;;;;5034686;28;20447;-80
2021/12/11 01:13:04;;;;;;;10.93;7.40;;;-3.10;99.90;-3.90;95460.00;;;;5037909;28;20467;-80
2021/12/11 01:16:04;;;;;;;11.10;7.43;;;-4.70;99.90;-3.90;95470.00;;;;5057802;28;20428;-80
2021/12/11 01:19:00;;;;;;;15.70;8.73;;;-3.10;99.90;-3.80;95463.00;;;;5028522;28;20943;-81
2021/12/11 01:21:58;;;;;;;12.87;8.17;;;-3.10;99.90;-3.80;95463.00;;;;5027736;28;21151;-81
2021/12/11 01:24:48;;;;;;;12.80;8.17;;;-3.10;99.90;-3.80;95454.00;;;;5028250;28;20973;-82
2021/12/11 01:27:43;;;;;;;16.80;7.83;;;-3.10;99.90;-3.70;95470.00;;;;5035838;28;20452;-81
2021/12/11 01:30:36;;;;;;;11.10;6.70;;;-3.10;99.90;-3.90;95478.00;;;;5026815;28;20428;-80
2021/12/11 01:33:25;;;;;;;12.33;8.70;;;-3.10;99.90;-3.80;95476.00;;;;5027742;28;20879;-82
2021/12/11 01:36:14;;;;;;;14.00;8.03;;;-3.10;99.90;-3.70;95473.00;;;;5028062;28;20424;-79
2021/12/11 01:39:10;;;;;;;14.33;9.47;;;-3.10;99.90;-3.70;95484.00;;;;5028015;28;20428;-80
2021/12/11 01:42:00;;;;;;;13.50;7.20;;;-3.10;99.90;-3.70;95479.00;;;;5028307;28;20452;-79
2021/12/11 01:44:53;;;;;;;13.20;9.27;;;-3.10;99.90;-3.60;95478.00;;;;5029113;28;20441;-78
2021/12/11 01:47:46;;;;;;;11.30;8.10;;;-3.00;99.90;-3.70;95481.00;;;;5029440;28;20416;-80
2021/12/11 01:50:42;;;;;;;11.60;7.00;;;-3.10;99.90;-3.80;95478.00;;;;5048419;28;20447;-81
2021/12/11 01:53:37;;;;;;;13.40;8.50;;;-3.10;99.90;-3.70;95479.00;;;;5038090;28;20471;-79
2021/12/11 01:56:31;;;;;;;10.13;7.33;;;-3.10;99.90;-3.80;95479.00;;;;5031386;28;20922;-81
2021/12/11 01:59:25;;;;;;;12.17;6.53;;;-3.10;99.90;-4.00;95490.00;;;;5035199;28;20426;-80
2021/12/11 02:02:22;;;;;;;9.73;6.53;;;-3.10;99.90;-3.90;95481.00;;;;5033201;28;20903;-78
2021/12/11 02:05:19;;;;;;;12.00;7.23;;;-2.20;99.90;-3.70;95491.00;;;;5034233;28;20424;-79
2021/12/11 02:08:13;;;;;;;10.50;6.67;;;-3.10;99.90;-3.60;95495.00;;;;5037388;28;20435;-82
2021/12/11 02:11:08;;;;;;;7.40;6.30;;;-3.10;99.90;-3.70;95518.00;;;;5043438;28;20466;-81
2021/12/11 02:14:04;;;;;;;13.83;7.43;;;-3.10;99.90;-3.60;95523.00;;;;5027354;28;20432;-80
2021/12/11 02:16:55;;;;;;;11.97;6.70;;;-3.10;99.90;-3.70;95522.00;;;;5027807;28;20439;-82
2021/12/11 02:19:47;;;;;;;11.77;7.87;;;-3.10;99.90;-3.60;95528.00;;;;5028223;28;21077;-81
2021/12/11 02:22:43;;;;;;;11.00;7.57;;;-4.00;99.90;-3.60;95528.00;;;;5033478;28;20439;-80
2021/12/11 02:25:39;;;;;;;9.77;7.60;;;-3.00;99.90;-3.90;95521.00;;;;5032602;28;20424;-80
2021/12/11 02:28:33;;;;;;;8.93;6.93;;;-2.90;99.90;-3.70;95534.00;;;;5026862;28;20444;-82
2021/12/11 02:31:29;;;;;;;8.63;6.30;;;-3.10;99.90;-3.70;95520.00;;;;5031156;28;20459;-79
2021/12/11 02:34:25;;;;;;;11.70;7.43;;;-3.10;99.90;-3.60;95527.00;;;;5026835;28;20420;-80
2021/12/11 02:37:19;;;;;;;6.87;6.13;;;-3.10;99.90;-3.60;95519.00;;;;5040988;28;20439;-79
2021/12/11 02:40:19;;;;;;;12.13;6.50;;;-3.00;99.90;-3.60;95526.00;;;;5033409;28;20428;-82
2021/12/11 02:43:14;;;;;;;11.83;7.27;;;-3.00;99.90;-3.60;95525.00;;;;5030682;28;20954;-81
2021/12/11 02:46:13;;;;;;;10.63;7.13;;;-3.00;99.90;-3.60;95535.00;;;;5046819;28;20442;-80
2021/12/11 02:49:15;;;;;;;9.30;6.33;;;-3.00;99.90;-3.60;95527.00;;;;5036378;28;20803;-78
2021/12/11 02:52:11;;;;;;;11.63;7.03;;;-3.00;99.90;-3.60;95531.00;;;;5056466;28;20486;-77
2021/12/11 02:55:08;;;;;;;8.03;6.37;;;-3.10;99.90;-3.70;95528.00;;;;5057552;28;20431;-79
2021/12/11 02:58:04;;;;;;;12.37;7.27;;;-3.00;99.90;-3.80;95527.00;;;;5042308;28;20942;-80
2021/12/11 03:00:58;;;;;;;10.50;6.57;;;-3.10;99.90;-4.10;95526.00;;;;5028372;28;20519;-81
2021/12/11 03:03:52;;;;;;;9.20;5.57;;;-3.00;99.90;-3.90;95537.00;;;;5053411;28;20439;-79
2021/12/11 03:06:45;;;;;;;7.80;5.43;;;-3.20;99.90;-3.90;95537.00;;;;5035929;28;20428;-79
2021/12/11 03:09:39;;;;;;;11.97;6.97;;;-3.20;99.90;-3.70;95536.00;;;;5040249;28;20816;-77
2021/12/11 03:12:28;;;;;;;8.03;6.87;;;-3.10;99.90;-3.80;95544.00;;;;5040665;28;20479;-80
2021/12/11 03:15:19;;;;;;;12.63;7.27;;;-3.10;99.90;-3.90;95556.00;;;;5040932;28;20454;-81
2021/12/11 03:18:09;;;;;;;10.57;6.40;;;-3.10;99.90;-4.00;95561.00;;;;5033927;28;20447;-79
2021/12/11 03:20:59;;;;;;;8.40;5.93;;;-3.20;99.90;-3.90;95554.00;;;;5036898;28;20934;-79
2021/12/11 03:23:50;;;;;;;7.80;4.77;;;-3.20;99.90;-4.00;95549.00;;;;5048538;28;20431;-77
2021/12/11 03:26:40;;;;;;;10.40;6.70;;;-3.20;99.90;-3.80;95560.00;;;;5028968;28;20448;-79
2021/12/11 03:29:29;;;;;;;12.17;7.57;;;-3.10;99.90;-3.70;95557.00;;;;5036871;28;20436;-78
2021/12/11 03:32:20;;;;;;;12.93;7.73;;;-4.50;99.90;-3.60;95561.00;;;;5029561;28;20460;-78
2021/12/11 03:35:11;;;;;;;10.43;6.77;;;-3.10;99.90;-3.70;95556.00;;;;5029486;28;20432;-80
2021/12/11 03:38:01;;;;;;;9.40;6.67;;;-3.00;99.90;-3.70;95570.00;;;;5029013;28;20448;-79
2021/12/11 03:40:50;;;;;;;7.80;5.07;;;-3.00;99.90;-3.60;95570.00;;;;5038472;28;20458;-78
2021/12/11 03:43:40;;;;;;;4.90;3.97;;;-3.00;99.90;-3.50;95572.00;;;;5046991;28;20435;-78
2021/12/11 03:46:49;;;;;;;9.53;4.97;;;-2.90;99.90;-3.40;95563.00;;;;5040820;28;20458;-79
2021/12/11 03:49:40;;;;;;;9.70;5.80;;;-2.90;99.90;-3.40;95572.00;;;;5035922;28;20420;-79
2021/12/11 03:52:29;;;;;;;10.33;7.77;;;-2.90;99.90;-3.30;95576.00;;;;5035247;28;20472;-80
2021/12/11 03:55:24;;;;;;;8.53;6.20;;;-2.90;99.90;-3.50;95563.00;;;;5045762;28;20458;-79
2021/12/11 03:58:14;;;;;;;8.37;6.17;;;-2.80;99.90;-3.50;95563.00;;;;5042509;28;20422;-80
2021/12/11 04:01:09;;;;;;;11.43;7.93;;;-2.80;99.90;-3.40;95582.00;;;;5035462;28;20475;-80
2021/12/11 04:04:03;;;;;;;10.77;6.57;;;-2.80;99.90;-3.70;95576.00;;;;5056110;28;20474;-79
2021/12/11 04:06:55;;;;;;;10.40;6.97;;;-2.90;99.90;-3.80;95575.00;;;;5036866;28;20761;-79
2021/12/11 04:09:45;;;;;;;8.23;5.57;;;-2.90;99.90;-3.70;95558.00;;;;5040095;28;20496;-79
2021/12/11 04:12:34;;;;;;;7.50;5.90;;;-1.50;99.90;-3.70;95564.00;;;;5052879;28;20461;-81
2021/12/11 04:15:24;;;;;;;8.10;6.23;;;-3.00;99.90;-3.80;95568.00;;;;5027147;28;20963;-80
2021/12/11 04:18:13;;;;;;;6.10;5.43;;;-3.00;99.90;-3.70;95571.00;;;;5029997;28;20432;-79
2021/12/11 04:21:03;;;;;;;13.00;7.07;;;-3.00;99.90;-3.60;95576.00;;;;5032733;28;20638;-80
2021/12/11 04:23:54;;;;;;;6.90;5.17;;;-3.00;99.90;-3.50;95578.00;;;;5029297;28;21013;-81
2021/12/11 04:26:43;;;;;;;10.30;7.17;;;-3.00;99.90;-3.40;95581.00;;;;5039992;28;20762;-80
2021/12/11 04:29:34;;;;;;;11.60;6.80;;;-2.90;99.90;-3.60;95579.00;;;;5027311;28;21006;-80
2021/12/11 04:32:26;;;;;;;8.57;6.10;;;-2.90;99.90;-3.70;95581.00;;;;5029343;28;20452;-80
2021/12/11 04:35:17;;;;;;;8.30;5.37;;;-3.00;99.90;-3.80;95587.00;;;;5032941;28;20447;-79
2021/12/11 04:38:09;;;;;;;7.67;5.10;;;-3.00;99.90;-3.80;95600.00;;;;5038952;28;20487;-80
2021/12/11 04:41:00;;;;;;;9.23;6.07;;;-2.90;99.90;-3.70;95600.00;;;;5037238;28;20439;-81
2021/12/11 04:43:52;;;;;;;11.30;5.43;;;-3.00;99.90;-3.80;95618.00;;;;5028384;28;20428;-79
2021/12/11 04:46:41;;;;;;;9.50;5.13;;;-3.00;99.90;-3.90;95618.00;;;;5037861;28;20440;-80
2021/12/11 04:49:36;;;;;;;7.73;5.40;;;-3.10;99.90;-4.10;95613.00;;;;5049596;28;20430;-80
2021/12/11 04:52:33;;;;;;;6.47;4.97;;;-3.20;99.90;-4.10;95608.00;;;;5044870;28;20470;-79
2021/12/11 04:55:40;;;;;;;4.87;4.37;;;-3.20;99.90;-4.30;95617.00;;;;5035908;28;20424;-80
2021/12/11 05:01:51;;;;;;;8.70;5.50;;;-3.30;99.90;-4.00;95633.00;;;;5029503;28;20451;-78
2021/12/11 05:04:52;;;;;;;9.80;6.03;;;-3.30;99.90;-3.90;95642.00;;;;5043096;28;20451;-79
2021/12/11 05:07:55;;;;;;;8.20;5.63;;;-3.30;99.90;-4.00;95634.00;;;;5030252;28;20440;-78
2021/12/11 05:10:53;;;;;;;8.83;5.70;;;-3.30;99.90;-3.90;95643.00;;;;5040298;28;21177;-79
2021/12/11 05:13:45;;;;;;;8.90;5.97;;;-3.30;99.90;-4.00;95629.00;;;;5030908;28;20486;-78
2021/12/11 05:16:34;;;;;;;8.83;6.00;;;-3.30;99.90;-4.10;95635.00;;;;5035640;28;20442;-80
2021/12/11 05:19:23;;;;;;;8.27;5.37;;;-3.30;99.90;-4.20;95635.00;;;;5034820;28;20432;-79
2021/12/11 05:22:13;;;;;;;8.20;6.60;;;-3.40;99.90;-4.30;95650.00;;;;5028038;28;20448;-76
2021/12/11 05:25:02;;;;;;;7.43;4.67;;;-3.40;99.90;-4.20;95654.00;;;;5028402;28;20443;-79
2021/12/11 05:27:51;;;;;;;8.53;6.20;;;-3.40;99.90;-4.20;95661.00;;;;5026839;28;20447;-77
2021/12/11 05:30:46;;;;;;;9.37;5.70;;;-3.40;99.90;-4.10;95677.00;;;;5034811;28;20458;-79
2021/12/11 05:33:36;;;;;;;6.40;4.00;;;-3.40;99.90;-4.10;95671.00;;;;5029222;28;20476;-78
2021/12/11 05:36:29;;;;;;;9.93;6.40;;;-3.40;99.90;-4.10;95675.00;;;;5035404;28;20734;-81
2021/12/11 05:39:21;;;;;;;8.57;5.43;;;-3.40;99.90;-4.30;95679.00;;;;5026280;28;20789;-77
2021/12/11 05:42:11;;;;;;;8.40;5.90;;;-3.40;99.90;-4.40;95686.00;;;;5027800;28;20452;-81
2021/12/11 05:45:01;;;;;;;6.57;4.90;;;-3.50;99.90;-4.60;95670.00;;;;5027881;28;21939;-81
2021/12/11 05:47:52;;;;;;;10.97;5.70;;;-2.90;99.90;-4.60;95674.00;;;;5035488;28;20950;-77
2021/12/11 05:50:45;;;;;;;12.27;6.90;;;-3.70;99.90;-4.60;95683.00;;;;5042414;28;20432;-77
2021/12/11 05:53:35;;;;;;;6.73;4.90;;;-3.80;99.90;-4.40;95681.00;;;;5059104;28;20456;-79
2021/12/11 05:56:25;;;;;;;10.43;5.97;;;-3.70;99.90;-4.40;95683.00;;;;5050290;28;20430;-81
2021/12/11 05:59:18;;;;;;;9.27;5.57;;;-3.70;99.90;-4.40;95689.00;;;;5043920;28;20582;-78
2021/12/11 06:02:14;;;;;;;11.50;5.83;;;-3.60;99.90;-4.40;95689.00;;;;5047927;28;20442;-78
2021/12/11 06:05:06;;;;;;;8.70;5.70;;;-3.60;99.90;-4.50;95696.00;;;;5037715;28;20468;-81
2021/12/11 06:07:55;;;;;;;8.90;5.57;;;-3.70;99.90;-4.80;95716.00;;;;5030858;28;20416;-80
2021/12/11 06:10:45;;;;;;;7.90;4.67;;;-3.70;99.90;-4.90;95725.00;;;;5043200;28;20501;-81
2021/12/11 06:13:34;;;;;;;7.10;5.93;;;-3.90;99.90;-5.00;95715.00;;;;5037141;28;21002;-79
2021/12/11 06:16:23;;;;;;;11.13;5.53;;;-3.00;99.90;-4.90;95723.00;;;;5047309;28;20449;-81
2021/12/11 06:19:12;;;;;;;8.80;5.80;;;-4.10;99.90;-4.80;95720.00;;;;5030347;28;20806;-80
2021/12/11 06:22:04;;;;;;;7.53;4.90;;;-4.00;99.90;-4.70;95711.00;;;;5026049;28;20452;-80
2021/12/11 06:24:55;;;;;;;11.53;4.80;;;-4.10;99.90;-4.60;95739.00;;;;5045161;28;20439;-79
2021/12/11 06:27:46;;;;;;;9.13;5.87;;;-4.00;99.90;-4.70;95752.00;;;;5047124;28;20444;-80
2021/12/11 06:30:36;;;;;;;8.87;4.13;;;-4.00;99.90;-5.00;95751.00;;;;5040444;28;20428;-79
2021/12/11 06:33:27;;;;;;;10.20;5.67;;;-4.00;99.90;-5.00;95757.00;;;;5035827;28;20432;-80
2021/12/11 06:36:20;;;;;;;6.03;5.43;;;-4.10;99.90;-4.80;95752.00;;;;5040326;28;20428;-80
2021/12/11 06:39:15;;;;;;;9.40;5.23;;;-3.50;99.90;-4.80;95757.00;;;;5027823;28;20826;-80
2021/12/11 06:42:09;;;;;;;9.80;6.47;;;-4.10;99.90;-4.80;95746.00;;;;5028998;28;20837;-82
2021/12/11 06:44:58;;;;;;;7.30;4.80;;;-4.10;99.90;-5.00;95757.00;;;;5031311;28;20435;-81
2021/12/11 06:47:47;;;;;;;6.50;5.77;;;-4.10;99.90;-5.80;95770.00;;;;5040638;28;20844;-78
2021/12/11 06:50:36;;;;;;;9.20;5.50;;;-4.30;99.90;-5.60;95778.00;;;;5049309;28;20427;-77
2021/12/11 06:53:32;;;;;;;8.10;6.00;;;-4.40;99.90;-5.30;95779.00;;;;5041295;28;20425;-76
2021/12/11 06:56:23;;;;;;;7.53;4.60;;;-4.50;99.90;-5.40;95778.00;;;;5025916;28;21224;-76
2021/12/11 06:59:13;;;;;;;7.07;4.87;;;-4.50;99.90;-5.30;95785.00;;;;5040214;28;20422;-76
2021/12/11 07:02:03;;;;;;;7.67;6.00;;;-4.50;99.90;-5.20;95791.00;;;;5034808;28;20458;-75
2021/12/11 07:04:55;;;;;;;7.53;5.83;;;-4.50;99.90;-5.50;95786.00;;;;5045934;28;20939;-74
2021/12/11 07:07:44;;;;;;;7.40;5.63;;;-4.50;99.90;-5.40;95800.00;;;;5024364;28;20431;-76
2021/12/11 07:10:33;;;;;;;8.40;6.10;;;-4.50;99.90;-5.40;95804.00;;;;5035467;28;21015;-76
2021/12/11 07:13:24;;;;;;;5.90;4.97;;;-4.60;99.90;-5.40;95818.00;;;;5024613;28;21549;-76
2021/12/11 07:16:14;;;;;;;5.53;5.00;;;-4.60;99.90;-5.20;95835.00;;;;5030533;28;20428;-76
2021/12/11 07:19:05;;;;;;;5.63;3.97;;;-4.50;99.90;-5.30;95835.00;;;;5024716;28;20440;-76
2021/12/11 07:21:55;;;;;;;8.77;5.37;;;-4.50;99.90;-5.50;95843.00;;;;5024479;28;20440;-75
2021/12/11 07:24:49;;;;;;;5.93;4.63;;;-4.50;99.90;-5.40;95856.00;;;;5025209;28;20482;-76
2021/12/11 07:27:38;;;;;;;8.23;5.20;;;-4.60;99.90;-5.40;95870.00;;;;5041969;28;20467;-75
2021/12/11 07:30:28;;;;;;;6.17;5.10;;;-4.90;99.90;-5.20;95877.00;;;;5038200;28;20443;-76
2021/12/11 07:33:18;;;;;;;7.47;5.10;;;-4.50;99.90;-5.30;95887.00;;;;5045473;28;20435;-76
2021/12/11 07:36:08;;;;;;;4.80;4.40;;;-4.50;99.90;-5.30;95899.00;;;;5033901;28;20475;-76
2021/12/11 07:38:58;;;;;;;9.37;5.63;;;-4.50;99.90;-5.50;95902.00;;;;5032376;28;20420;-77
2021/12/11 07:41:48;;;;;;;10.00;6.20;;;-4.60;99.90;-5.10;95913.00;;;;5040707;28;20455;-80
2021/12/11 07:44:37;;;;;;;9.07;5.17;;;-4.50;99.90;-5.10;95926.00;;;;5047418;28;20458;-80
2021/12/11 07:47:27;;;;;;;7.07;4.23;;;-4.50;99.90;-5.10;95940.00;;;;5044771;28;20447;-77
2021/12/11 07:50:17;;;;;;;6.27;5.33;;;-4.40;99.90;-5.20;95949.00;;;;5039898;28;20432;-76
2021/12/11 07:53:06;;;;;;;6.77;5.00;;;-4.40;99.90;-5.20;95955.00;;;;5039804;28;20530;-76
2021/12/11 07:55:55;;;;;;;13.40;6.00;;;-4.40;99.90;-5.00;95956.00;;;;5043896;28;20470;-76
2021/12/11 07:58:44;;;;;;;23.57;11.87;;;-4.40;99.90;-4.20;95971.00;;;;5054783;28;20964;-78
2021/12/11 08:01:39;;;;;;;10.03;7.13;;;-4.20;99.90;-4.00;95990.00;;;;5036417;28;20462;-77
2021/12/11 08:04:29;;;;;;;8.03;4.97;;;-3.70;99.90;-4.50;96001.00;;;;5040815;28;20436;-77
2021/12/11 08:07:19;;;;;;;10.17;7.10;;;-3.80;99.90;-4.20;95997.00;;;;5045195;28;21046;-77
2021/12/11 08:10:13;;;;;;;13.30;7.63;;;-3.80;99.90;-4.00;96015.00;;;;5035547;28;20427;-75
2021/12/11 08:13:05;;;;;;;24.30;10.13;;;-3.70;99.90;-3.70;96034.00;;;;5041063;28;20463;-76
2021/12/11 08:15:56;;;;;;;21.70;11.30;;;-3.60;99.90;-3.40;96044.00;;;;5039156;28;20485;-76
2021/12/11 08:18:45;;;;;;;13.50;8.43;;;-3.30;99.90;-3.60;96043.00;;;;5037726;28;20434;-77
2021/12/11 08:21:36;;;;;;;16.10;8.77;;;-3.20;99.90;-3.50;96060.00;;;;5035034;28;20444;-75
2021/12/11 08:24:28;;;;;;;25.93;12.60;;;-3.10;99.90;-3.30;96061.00;;;;5056590;28;20423;-77
2021/12/11 08:27:21;;;;;;;16.30;11.03;;;-3.00;99.90;-3.20;96061.00;;;;5040517;28;20469;-75
2021/12/11 08:30:12;;;;;;;22.30;12.67;;;-2.90;99.90;-2.90;96077.00;;;;5039463;28;22239;-77
2021/12/11 08:33:01;;;;;;;27.00;16.57;;;-2.80;99.90;-2.90;96084.00;;;;5040668;28;20460;-77
2021/12/11 08:35:51;;;;;;;24.03;11.40;;;-2.70;99.90;-2.80;96091.00;;;;5042807;28;20482;-77
2021/12/11 08:38:43;;;;;;;17.90;11.43;;;-2.50;99.90;-3.10;96108.00;;;;5036344;28;20426;-77
2021/12/11 08:41:34;;;;;;;27.50;14.33;;;-2.50;99.90;-2.90;96115.00;;;;5042604;28;20471;-73
2021/12/11 08:44:24;;;;;;;23.63;13.50;;;-2.50;99.90;-2.80;96129.00;;;;5032417;28;20430;-73
2021/12/11 08:47:13;;;;;;;24.87;12.17;;;-2.50;99.90;-2.90;96128.00;;;;5031962;28;20428;-73
2021/12/11 08:50:02;;;;;;;20.60;12.50;;;-2.40;99.90;-2.80;96139.00;;;;5038128;28;21034;-76
2021/12/11 08:52:53;;;;;;;19.93;12.70;;;-2.40;99.90;-2.60;96144.00;;;;5043278;28;20455;-73
2021/12/11 08:55:50;;;;;;;23.97;14.43;;;-2.30;99.90;-2.50;96159.00;;;;5064606;28;20493;-73
2021/12/11 08:58:41;;;;;;;22.47;14.87;;;-2.30;99.90;-2.60;96169.00;;;;5035690;28;20804;-73
2021/12/11 09:01:38;;;;;;;21.63;13.60;;;-2.20;99.90;-2.50;96177.00;;;;5038170;28;20452;-72
2021/12/11 09:04:39;;;;;;;20.37;13.57;;;-2.10;99.90;-2.50;96181.00;;;;5039067;28;20497;-73
2021/12/11 09:07:33;;;;;;;21.63;14.73;;;-2.10;99.90;-2.40;96189.00;;;;5051560;28;20431;-73
2021/12/11 09:10:27;;;;;;;29.70;14.13;;;-2.00;99.90;-2.50;96177.00;;;;5050343;28;20473;-73
2021/12/11 09:13:22;;;;;;;29.77;17.20;;;-2.00;99.90;-2.30;96178.00;;;;5033475;28;20436;-73
2021/12/11 09:16:18;;;;;;;24.50;14.03;;;-1.90;99.90;-2.40;96189.00;;;;5040226;28;20460;-73
2021/12/11 09:19:13;;;;;;;25.73;13.27;;;-1.80;99.90;-2.40;96185.00;;;;5036095;28;20431;-76
2021/12/11 09:22:11;;;;;;;28.00;13.90;;;-1.80;99.90;-2.30;96197.00;;;;5040420;28;20472;-77
2021/12/11 09:25:10;;;;;;;25.17;15.53;;;-1.70;99.90;-1.90;96200.00;;;;5031101;28;21052;-75
2021/12/11 09:28:14;;;;;;;24.93;12.43;;;-1.70;99.90;-2.20;96192.00;;;;5036253;28;20837;-75
2021/12/11 09:31:12;;;;;;;22.43;12.93;;;-1.60;99.90;-2.10;96208.00;;;;5025925;28;20475;-75
2021/12/11 09:34:09;;;;;;;28.37;15.73;;;-1.60;99.90;-1.90;96208.00;;;;5029342;28;20443;-75
2021/12/11 09:37:01;;;;;;;24.97;13.67;;;-1.40;99.90;-1.80;96208.00;;;;5042569;28;20471;-74
2021/12/11 09:39:57;;;;;;;27.90;13.70;;;-1.50;99.90;-1.80;96214.00;;;;5034049;28;20444;-76
2021/12/11 09:42:47;;;;;;;26.67;14.47;;;-1.40;99.90;-1.70;96216.00;;;;5040486;28;20612;-76
2021/12/11 09:45:43;;;;;;;28.87;14.13;;;-1.30;99.90;-1.50;96218.00;;;;5050332;28;20439;-78
2021/12/11 09:48:32;;;;;;;22.80;14.33;;;-1.30;99.90;-1.30;96227.00;;;;5047890;28;21030;-78
2021/12/11 09:51:28;;;;;;;25.33;14.10;;;-1.10;99.90;-1.60;96219.00;;;;5042865;28;20464;-79
2021/12/11 09:54:23;;;;;;;27.57;14.43;;;-1.10;99.90;-1.40;96245.00;;;;5046880;28;20443;-79
2021/12/11 09:57:16;;;;;;;25.37;13.17;;;-1.00;99.90;-1.40;96233.00;;;;5047243;28;20978;-76
2021/12/11 10:00:11;;;;;;;16.73;12.00;;;-0.90;99.90;-1.30;96231.00;;;;5048537;28;20443;-77
2021/12/11 10:03:04;;;;;;;19.27;12.13;;;-0.90;99.90;-1.30;96228.00;;;;5047263;28;20470;-80
2021/12/11 10:06:00;;;;;;;20.03;12.13;;;-0.90;99.90;-1.40;96227.00;;;;5041996;28;20732;-77
2021/12/11 10:09:06;;;;;;;16.83;11.13;;;-0.90;99.90;-1.00;96229.00;;;;5040573;28;20421;-78
2021/12/11 10:12:03;;;;;;;21.53;12.33;;;-0.80;99.90;-0.50;96238.00;;;;5037193;28;20463;-77
2021/12/11 10:14:58;;;;;;;19.17;11.27;;;-0.60;99.90;-0.20;96238.00;;;;5041413;28;20427;-77
2021/12/11 10:17:55;;;;;;;20.17;12.13;;;-0.40;99.90;-0.60;96235.00;;;;5032343;28;20439;-76
2021/12/11 10:20:51;;;;;;;20.90;10.50;;;-0.30;99.90;-0.80;96230.00;;;;5033542;28;20950;-78
2021/12/11 10:23:45;;;;;;;19.80;11.60;;;-0.30;99.90;-0.10;96250.00;;;;5034581;28;20423;-78
2021/12/11 10:26:35;;;;;;;22.13;11.90;;;-0.20;99.90;0.30;96242.00;;;;5029488;28;20450;-79
2021/12/11 10:29:26;;;;;;;22.70;11.13;;;0.00;99.90;0.60;96234.00;;;;5022051;28;20470;-76
2021/12/11 10:32:19;;;;;;;21.43;11.03;;;0.20;99.90;1.20;96248.00;;;;5022935;28;20475;-75
2021/12/11 10:35:13;;;;;;;19.90;11.33;;;0.50;99.90;1.10;96258.00;;;;5021304;28;22002;-75
2021/12/11 10:38:06;;;;;;;17.67;10.77;;;0.60;99.90;1.30;96245.00;;;;5022275;28;20443;-74
2021/12/11 10:40:59;;;;;;;19.97;10.80;;;0.80;99.90;1.60;96249.00;;;;5014869;28;20442;-77
2021/12/11 10:43:53;;;;;;;21.60;13.47;;;1.00;99.90;1.30;96248.00;;;;5026506;28;20541;-77
2021/12/11 10:46:47;;;;;;;19.60;11.83;;;1.10;99.90;1.40;96255.00;;;;5027772;28;20454;-75
2021/12/11 10:49:37;;;;;;;21.20;11.30;;;1.20;99.90;1.30;96253.00;;;;5026165;28;20436;-80
2021/12/11 10:52:31;;;;;;;16.13;9.57;;;1.20;99.90;1.40;96245.00;;;;5023147;28;20454;-77
2021/12/11 10:55:26;;;;;;;19.30;10.73;;;1.20;99.90;1.40;96235.00;;;;5027055;28;20975;-79
2021/12/11 10:58:20;;;;;;;18.73;11.10;;;1.30;99.90;1.70;96221.00;;;;5024308;28;20739;-79
2021/12/11 11:01:14;;;;;;;17.83;10.00;;;1.30;99.90;2.00;96211.00;;;;5027821;28;21452;-81
2021/12/11 11:04:08;;;;;;;15.87;9.80;;;1.50;99.90;2.00;96220.00;;;;5032098;28;20439;-77
2021/12/11 11:07:01;;;;;;;17.27;10.33;;;1.60;99.90;1.80;96222.00;;;;5028529;28;20511;-79
2021/12/11 11:09:51;;;;;;;19.33;10.83;;;1.70;99.90;1.60;96219.00;;;;5027920;28;20442;-81
2021/12/11 11:12:41;;;;;;;20.43;13.17;;;1.60;99.90;1.00;96204.00;;;;5029502;28;20503;-80
2021/12/11 11:15:35;;;;;;;20.60;12.90;;;1.40;99.90;1.20;96200.00;;;;5032438;28;20439;-80
2021/12/11 11:18:27;;;;;;;23.23;11.77;;;1.20;99.90;1.40;96208.00;;;;5031414;28;20459;-81
2021/12/11 11:21:20;;;;;;;18.37;12.93;;;1.30;99.90;1.50;96184.00;;;;5032942;28;20551;-79
2021/12/11 11:24:12;;;;;;;26.40;13.87;;;1.30;99.90;1.30;96187.00;;;;5029086;28;20450;-80
2021/12/11 11:27:08;;;;;;;23.07;13.37;;;1.40;99.90;1.30;96181.00;;;;5026514;28;20451;-80
2021/12/11 11:29:59;;;;;;;35.40;18.33;;;1.30;99.90;1.10;96177.00;;;;5032724;28;20482;-79
2021/12/11 11:32:51;;;;;;;26.13;16.93;;;1.30;99.90;0.90;96171.00;;;;5041690;28;20471;-79
2021/12/11 11:35:44;;;;;;;24.03;14.87;;;1.20;99.90;1.00;96167.00;;;;5040323;28;20451;-80
2021/12/11 11:38:36;;;;;;;23.23;14.73;;;1.10;99.90;1.10;96162.00;;;;5024861;28;20458;-76
2021/12/11 11:41:36;;;;;;;21.77;12.97;;;1.50;99.90;1.10;96172.00;;;;5023717;28;20467;-76
2021/12/11 11:44:28;;;;;;;21.77;14.07;;;1.00;99.90;1.30;96178.00;;;;5025609;28;22691;-77
2021/12/11 11:47:20;;;;;;;22.50;14.13;;;1.00;99.90;1.20;96176.00;;;;5025674;28;20979;-78
2021/12/11 11:50:12;;;;;;;19.43;12.37;;;1.10;99.90;1.40;96171.00;;;;5022860;28;20534;-77
2021/12/11 11:53:03;;;;;;;21.20;13.37;;;1.10;99.90;1.60;96166.00;;;;5025171;28;20716;-77
2021/12/11 11:55:58;;;;;;;23.13;13.50;;;1.20;99.90;1.20;96158.00;;;;5042705;28;20447;-77
2021/12/11 11:58:49;;;;;;;17.47;11.57;;;1.30;99.90;1.00;96158.00;;;;5028088;28;20854;-80
2021/12/11 12:01:42;;;;;;;21.87;14.77;;;1.20;99.90;1.10;96158.00;;;;5023139;28;20578;-79
2021/12/11 12:04:37;;;;;;;25.87;12.57;;;3.00;99.90;1.30;96163.00;;;;5021047;28;20440;-79
2021/12/11 12:07:29;;;;;;;20.03;12.53;;;1.10;99.90;1.20;96158.00;;;;5027061;28;20523;-78
2021/12/11 12:10:21;;;;;;;21.27;12.97;;;1.10;99.90;1.40;96160.00;;;;5019899;28;20514;-79
2021/12/11 12:13:10;;;;;;;21.33;12.57;;;1.10;99.90;1.70;96146.00;;;;5026163;28;21071;-78
2021/12/11 12:16:05;;;;;;;19.13;11.47;;;1.10;99.90;1.40;96147.00;;;;5022730;28;20444;-78
2021/12/11 12:18:54;;;;;;;21.60;12.23;;;1.20;99.90;1.10;96154.00;;;;5025868;28;20439;-77
2021/12/11 12:21:48;;;;;;;23.67;12.47;;;1.20;99.90;0.90;96135.00;;;;5024719;28;20982;-76
2021/12/11 12:24:42;;;;;;;23.00;12.63;;;1.30;99.90;1.30;96155.00;;;;5023131;28;22506;-80
2021/12/11 12:27:36;;;;;;;16.20;10.80;;;1.20;99.90;1.50;96139.00;;;;5027788;28;20463;-80
2021/12/11 12:30:32;;;;;;;24.73;13.47;;;1.30;99.90;1.70;96141.00;;;;5029514;28;20435;-79
2021/12/11 12:33:22;;;;;;;18.30;12.33;;;1.40;99.90;2.10;96155.00;;;;5033313;28;21135;-79
2021/12/11 12:36:15;;;;;;;21.47;12.83;;;1.60;99.90;2.50;96148.00;;;;5030629;28;20445;-79
2021/12/11 12:39:09;;;;;;;17.83;11.97;;;1.90;99.90;2.70;96167.00;;;;5028638;28;21072;-79
2021/12/11 12:42:15;;;;;;;17.47;11.73;;;2.20;99.90;2.90;96151.00;;;;5026576;28;21167;-78
2021/12/11 12:45:14;;;;;;;21.57;11.80;;;2.30;99.90;3.60;96124.00;;;;5023332;28;20442;-80